sensor_id;sensor_type;location;lat;lon;timestamp;P1;durP1;ratioP1;P2;durP2;ratioP2
15340;SDS011;7770;52.158;5.372;2023-05-07T00:01:43;24.17;;;22.03;;
15340;SDS011;7770;52.158;5.372;2023-05-07T00:04:29;24.40;;;22.20;;
15340;SDS011;7770;52.158;5.372;2023-05-07T00:07:21;24.43;;;22.20;;
15340;SDS011;7770;52.158;5.372;2023-05-07T00:10:07;24.00;;;21.83;;
15340;SDS011;7770;52.158;5.372;2023-05-07T00:12:53;23.27;;;21.27;;
15340;SDS011;7770;52.158;5.372;2023-05-07T00:15:39;23.63;;;21.53;;
15340;SDS011;7770;52.158;5.372;2023-05-07T00:18:25;24.90;;;22.70;;
15340;SDS011;7770;52.158;5.372;2023-05-07T00:21:11;24.33;;;22.07;;
15340;SDS011;7770;52.158;5.372;2023-05-07T00:23:57;24.70;;;22.40;;
15340;SDS011;7770;52.158;5.372;2023-05-07T00:26:43;24.63;;;22.33;;
15340;SDS011;7770;52.158;5.372;2023-05-07T00:29:29;23.40;;;21.23;;
15340;SDS011;7770;52.158;5.372;2023-05-07T00:32:15;24.70;;;22.27;;
15340;SDS011;7770;52.158;5.372;2023-05-07T00:35:01;25.13;;;22.73;;
15340;SDS011;7770;52.158;5.372;2023-05-07T00:37:48;24.87;;;22.47;;
15340;SDS011;7770;52.158;5.372;2023-05-07T00:40:35;24.90;;;22.63;;
15340;SDS011;7770;52.158;5.372;2023-05-07T00:43:21;25.33;;;22.77;;
15340;SDS011;7770;52.158;5.372;2023-05-07T00:46:06;24.80;;;22.50;;
15340;SDS011;7770;52.158;5.372;2023-05-07T00:48:53;24.50;;;22.20;;
15340;SDS011;7770;52.158;5.372;2023-05-07T00:51:39;24.70;;;22.40;;
15340;SDS011;7770;52.158;5.372;2023-05-07T00:54:25;25.10;;;22.83;;
15340;SDS011;7770;52.158;5.372;2023-05-07T00:57:11;23.63;;;21.43;;
15340;SDS011;7770;52.158;5.372;2023-05-07T00:59:57;23.87;;;21.63;;
15340;SDS011;7770;52.158;5.372;2023-05-07T01:02:43;24.60;;;22.30;;
15340;SDS011;7770;52.158;5.372;2023-05-07T01:05:29;23.83;;;21.40;;
15340;SDS011;7770;52.158;5.372;2023-05-07T01:08:16;24.60;;;22.20;;
15340;SDS011;7770;52.158;5.372;2023-05-07T01:11:03;24.43;;;22.03;;
15340;SDS011;7770;52.158;5.372;2023-05-07T01:13:49;23.07;;;20.97;;
15340;SDS011;7770;52.158;5.372;2023-05-07T01:16:36;22.67;;;20.73;;
15340;SDS011;7770;52.158;5.372;2023-05-07T01:19:22;23.47;;;21.33;;
15340;SDS011;7770;52.158;5.372;2023-05-07T01:22:09;23.87;;;21.57;;
15340;SDS011;7770;52.158;5.372;2023-05-07T01:24:56;22.77;;;20.63;;
15340;SDS011;7770;52.158;5.372;2023-05-07T01:27:44;22.50;;;20.40;;
15340;SDS011;7770;52.158;5.372;2023-05-07T01:30:31;23.07;;;20.87;;
15340;SDS011;7770;52.158;5.372;2023-05-07T01:33:20;21.83;;;19.90;;
15340;SDS011;7770;52.158;5.372;2023-05-07T01:36:07;22.00;;;19.80;;
15340;SDS011;7770;52.158;5.372;2023-05-07T01:38:55;22.57;;;20.57;;
15340;SDS011;7770;52.158;5.372;2023-05-07T01:41:43;23.03;;;20.90;;
15340;SDS011;7770;52.158;5.372;2023-05-07T01:44:30;22.03;;;20.03;;
15340;SDS011;7770;52.158;5.372;2023-05-07T01:47:16;22.33;;;20.27;;
15340;SDS011;7770;52.158;5.372;2023-05-07T01:50:06;21.93;;;19.83;;
15340;SDS011;7770;52.158;5.372;2023-05-07T01:52:53;21.90;;;19.80;;
15340;SDS011;7770;52.158;5.372;2023-05-07T01:55:39;22.77;;;20.77;;
15340;SDS011;7770;52.158;5.372;2023-05-07T01:58:25;21.80;;;19.90;;
15340;SDS011;7770;52.158;5.372;2023-05-07T02:01:12;22.37;;;20.37;;
15340;SDS011;7770;52.158;5.372;2023-05-07T02:03:59;23.83;;;21.40;;
15340;SDS011;7770;52.158;5.372;2023-05-07T02:06:45;23.67;;;21.57;;
15340;SDS011;7770;52.158;5.372;2023-05-07T02:09:31;24.03;;;21.73;;
15340;SDS011;7770;52.158;5.372;2023-05-07T02:12:17;24.53;;;22.23;;
15340;SDS011;7770;52.158;5.372;2023-05-07T02:15:03;26.93;;;24.33;;
15340;SDS011;7770;52.158;5.372;2023-05-07T02:17:59;26.80;;;24.10;;
15340;SDS011;7770;52.158;5.372;2023-05-07T02:20:48;26.60;;;24.17;;
15340;SDS011;7770;52.158;5.372;2023-05-07T02:23:34;28.37;;;25.67;;
15340;SDS011;7770;52.158;5.372;2023-05-07T02:26:20;27.47;;;24.97;;
15340;SDS011;7770;52.158;5.372;2023-05-07T02:29:06;28.13;;;25.60;;
15340;SDS011;7770;52.158;5.372;2023-05-07T02:31:52;28.53;;;25.97;;
15340;SDS011;7770;52.158;5.372;2023-05-07T02:34:38;28.93;;;26.17;;
15340;SDS011;7770;52.158;5.372;2023-05-07T02:37:24;29.30;;;26.60;;
15340;SDS011;7770;52.158;5.372;2023-05-07T02:40:11;28.67;;;26.00;;
15340;SDS011;7770;52.158;5.372;2023-05-07T02:42:57;29.23;;;26.63;;
15340;SDS011;7770;52.158;5.372;2023-05-07T02:45:43;29.97;;;27.27;;
15340;SDS011;7770;52.158;5.372;2023-05-07T02:48:29;30.03;;;27.23;;
15340;SDS011;7770;52.158;5.372;2023-05-07T02:51:17;30.33;;;27.63;;
15340;SDS011;7770;52.158;5.372;2023-05-07T02:54:05;31.50;;;28.23;;
15340;SDS011;7770;52.158;5.372;2023-05-07T02:56:52;30.87;;;28.10;;
15340;SDS011;7770;52.158;5.372;2023-05-07T02:59:38;31.30;;;28.30;;
15340;SDS011;7770;52.158;5.372;2023-05-07T03:02:24;31.80;;;28.73;;
15340;SDS011;7770;52.158;5.372;2023-05-07T03:05:10;31.63;;;28.53;;
15340;SDS011;7770;52.158;5.372;2023-05-07T03:07:57;32.40;;;29.40;;
15340;SDS011;7770;52.158;5.372;2023-05-07T03:10:43;31.50;;;28.40;;
15340;SDS011;7770;52.158;5.372;2023-05-07T03:13:29;30.87;;;27.87;;
15340;SDS011;7770;52.158;5.372;2023-05-07T03:16:15;30.40;;;27.60;;
15340;SDS011;7770;52.158;5.372;2023-05-07T03:19:01;31.40;;;28.30;;
15340;SDS011;7770;52.158;5.372;2023-05-07T03:21:47;31.63;;;28.53;;
15340;SDS011;7770;52.158;5.372;2023-05-07T03:24:33;30.80;;;28.00;;
15340;SDS011;7770;52.158;5.372;2023-05-07T03:27:19;31.13;;;28.30;;
15340;SDS011;7770;52.158;5.372;2023-05-07T03:30:05;32.13;;;29.07;;
15340;SDS011;7770;52.158;5.372;2023-05-07T03:32:52;31.63;;;28.73;;
15340;SDS011;7770;52.158;5.372;2023-05-07T03:35:38;29.77;;;27.03;;
15340;SDS011;7770;52.158;5.372;2023-05-07T03:38:25;30.13;;;27.27;;
15340;SDS011;7770;52.158;5.372;2023-05-07T03:41:11;30.90;;;28.20;;
15340;SDS011;7770;52.158;5.372;2023-05-07T03:43:57;31.33;;;28.33;;
15340;SDS011;7770;52.158;5.372;2023-05-07T03:46:43;32.50;;;29.43;;
15340;SDS011;7770;52.158;5.372;2023-05-07T03:49:29;32.13;;;29.17;;
15340;SDS011;7770;52.158;5.372;2023-05-07T03:52:15;32.60;;;29.40;;
15340;SDS011;7770;52.158;5.372;2023-05-07T03:55:01;32.50;;;29.30;;
15340;SDS011;7770;52.158;5.372;2023-05-07T03:57:47;32.97;;;29.83;;
15340;SDS011;7770;52.158;5.372;2023-05-07T04:00:33;32.27;;;29.17;;
15340;SDS011;7770;52.158;5.372;2023-05-07T04:03:23;32.53;;;29.27;;
15340;SDS011;7770;52.158;5.372;2023-05-07T04:06:09;30.20;;;27.17;;
15340;SDS011;7770;52.158;5.372;2023-05-07T04:08:56;29.90;;;26.97;;
15340;SDS011;7770;52.158;5.372;2023-05-07T04:11:42;30.57;;;27.57;;
15340;SDS011;7770;52.158;5.372;2023-05-07T04:14:28;30.37;;;27.37;;
15340;SDS011;7770;52.158;5.372;2023-05-07T04:17:14;30.47;;;27.77;;
15340;SDS011;7770;52.158;5.372;2023-05-07T04:20:00;30.93;;;27.83;;
15340;SDS011;7770;52.158;5.372;2023-05-07T04:22:46;29.67;;;26.87;;
15340;SDS011;7770;52.158;5.372;2023-05-07T04:25:32;31.30;;;28.30;;
15340;SDS011;7770;52.158;5.372;2023-05-07T04:28:18;31.57;;;28.57;;
15340;SDS011;7770;52.158;5.372;2023-05-07T04:31:04;30.73;;;27.73;;
15340;SDS011;7770;52.158;5.372;2023-05-07T04:33:50;30.70;;;27.80;;
15340;SDS011;7770;52.158;5.372;2023-05-07T04:36:39;31.17;;;28.13;;
15340;SDS011;7770;52.158;5.372;2023-05-07T04:39:27;32.50;;;29.30;;
15340;SDS011;7770;52.158;5.372;2023-05-07T04:42:16;32.07;;;28.73;;
15340;SDS011;7770;52.158;5.372;2023-05-07T04:45:03;29.77;;;26.93;;
15340;SDS011;7770;52.158;5.372;2023-05-07T04:47:50;29.43;;;26.73;;
15340;SDS011;7770;52.158;5.372;2023-05-07T04:50:36;28.73;;;25.97;;
15340;SDS011;7770;52.158;5.372;2023-05-07T04:53:22;28.43;;;25.80;;
15340;SDS011;7770;52.158;5.372;2023-05-07T04:56:08;30.57;;;26.27;;
15340;SDS011;7770;52.158;5.372;2023-05-07T04:58:54;28.03;;;25.43;;
15340;SDS011;7770;52.158;5.372;2023-05-07T05:01:40;28.00;;;25.20;;
15340;SDS011;7770;52.158;5.372;2023-05-07T05:04:26;27.87;;;25.23;;
15340;SDS011;7770;52.158;5.372;2023-05-07T05:07:12;27.97;;;25.23;;
15340;SDS011;7770;52.158;5.372;2023-05-07T05:09:58;28.23;;;25.30;;
15340;SDS011;7770;52.158;5.372;2023-05-07T05:12:44;29.27;;;26.37;;
15340;SDS011;7770;52.158;5.372;2023-05-07T05:15:30;27.63;;;24.93;;
15340;SDS011;7770;52.158;5.372;2023-05-07T05:18:16;29.27;;;26.53;;
15340;SDS011;7770;52.158;5.372;2023-05-07T05:21:02;28.87;;;26.07;;
15340;SDS011;7770;52.158;5.372;2023-05-07T05:23:48;29.80;;;27.00;;
15340;SDS011;7770;52.158;5.372;2023-05-07T05:26:35;30.90;;;27.77;;
15340;SDS011;7770;52.158;5.372;2023-05-07T05:29:21;30.37;;;27.50;;
15340;SDS011;7770;52.158;5.372;2023-05-07T05:32:07;31.47;;;28.27;;
15340;SDS011;7770;52.158;5.372;2023-05-07T05:34:53;31.10;;;28.23;;
15340;SDS011;7770;52.158;5.372;2023-05-07T05:37:39;31.93;;;28.83;;
15340;SDS011;7770;52.158;5.372;2023-05-07T05:40:25;31.70;;;28.70;;
15340;SDS011;7770;52.158;5.372;2023-05-07T05:43:11;31.93;;;29.03;;
15340;SDS011;7770;52.158;5.372;2023-05-07T05:45:57;32.93;;;29.63;;
15340;SDS011;7770;52.158;5.372;2023-05-07T05:48:43;32.30;;;29.10;;
15340;SDS011;7770;52.158;5.372;2023-05-07T05:51:29;32.37;;;29.03;;
15340;SDS011;7770;52.158;5.372;2023-05-07T05:54:15;31.83;;;28.83;;
15340;SDS011;7770;52.158;5.372;2023-05-07T05:57:01;33.30;;;29.87;;
15340;SDS011;7770;52.158;5.372;2023-05-07T05:59:49;32.33;;;29.30;;
15340;SDS011;7770;52.158;5.372;2023-05-07T06:02:35;33.27;;;29.93;;
15340;SDS011;7770;52.158;5.372;2023-05-07T06:05:21;34.07;;;30.80;;
15340;SDS011;7770;52.158;5.372;2023-05-07T06:08:07;34.90;;;31.57;;
15340;SDS011;7770;52.158;5.372;2023-05-07T06:10:53;35.80;;;32.27;;
15340;SDS011;7770;52.158;5.372;2023-05-07T06:13:39;36.13;;;32.70;;
15340;SDS011;7770;52.158;5.372;2023-05-07T06:16:25;35.77;;;32.23;;
15340;SDS011;7770;52.158;5.372;2023-05-07T06:19:11;36.73;;;33.03;;
15340;SDS011;7770;52.158;5.372;2023-05-07T06:21:57;38.20;;;34.47;;
15340;SDS011;7770;52.158;5.372;2023-05-07T06:24:43;38.43;;;34.73;;
15340;SDS011;7770;52.158;5.372;2023-05-07T06:27:29;38.40;;;34.73;;
15340;SDS011;7770;52.158;5.372;2023-05-07T06:30:15;39.77;;;35.70;;
15340;SDS011;7770;52.158;5.372;2023-05-07T06:33:01;39.80;;;35.80;;
15340;SDS011;7770;52.158;5.372;2023-05-07T06:35:47;40.90;;;36.90;;
15340;SDS011;7770;52.158;5.372;2023-05-07T06:38:33;41.20;;;37.00;;
15340;SDS011;7770;52.158;5.372;2023-05-07T06:41:19;40.53;;;36.60;;
15340;SDS011;7770;52.158;5.372;2023-05-07T06:44:05;41.17;;;37.20;;
15340;SDS011;7770;52.158;5.372;2023-05-07T06:46:51;41.63;;;37.63;;
15340;SDS011;7770;52.158;5.372;2023-05-07T06:49:37;41.93;;;37.53;;
15340;SDS011;7770;52.158;5.372;2023-05-07T06:52:23;43.30;;;39.00;;
15340;SDS011;7770;52.158;5.372;2023-05-07T06:55:09;42.70;;;38.47;;
15340;SDS011;7770;52.158;5.372;2023-05-07T06:57:56;40.13;;;36.30;;
15340;SDS011;7770;52.158;5.372;2023-05-07T07:00:46;39.87;;;36.07;;
15340;SDS011;7770;52.158;5.372;2023-05-07T07:03:32;39.53;;;35.57;;
15340;SDS011;7770;52.158;5.372;2023-05-07T07:06:18;39.80;;;35.80;;
15340;SDS011;7770;52.158;5.372;2023-05-07T07:09:04;38.50;;;34.67;;
15340;SDS011;7770;52.158;5.372;2023-05-07T07:11:50;38.70;;;35.10;;
15340;SDS011;7770;52.158;5.372;2023-05-07T07:14:36;39.20;;;35.40;;
15340;SDS011;7770;52.158;5.372;2023-05-07T07:17:22;37.77;;;34.17;;
15340;SDS011;7770;52.158;5.372;2023-05-07T07:20:08;36.47;;;33.03;;
15340;SDS011;7770;52.158;5.372;2023-05-07T07:22:56;35.37;;;31.83;;
15340;SDS011;7770;52.158;5.372;2023-05-07T07:25:42;32.43;;;29.53;;
15340;SDS011;7770;52.158;5.372;2023-05-07T07:28:28;32.77;;;29.77;;
15340;SDS011;7770;52.158;5.372;2023-05-07T07:31:14;32.03;;;29.13;;
15340;SDS011;7770;52.158;5.372;2023-05-07T07:34:00;32.67;;;29.57;;
15340;SDS011;7770;52.158;5.372;2023-05-07T07:36:46;31.23;;;28.33;;
15340;SDS011;7770;52.158;5.372;2023-05-07T07:39:32;31.80;;;28.90;;
15340;SDS011;7770;52.158;5.372;2023-05-07T07:42:19;30.87;;;28.07;;
15340;SDS011;7770;52.158;5.372;2023-05-07T07:45:05;29.00;;;26.53;;
15340;SDS011;7770;52.158;5.372;2023-05-07T07:47:52;28.57;;;25.87;;
15340;SDS011;7770;52.158;5.372;2023-05-07T07:50:38;24.80;;;22.53;;
15340;SDS011;7770;52.158;5.372;2023-05-07T07:53:24;24.17;;;22.10;;
15340;SDS011;7770;52.158;5.372;2023-05-07T07:56:10;25.77;;;23.57;;
15340;SDS011;7770;52.158;5.372;2023-05-07T07:58:57;24.80;;;22.60;;
15340;SDS011;7770;52.158;5.372;2023-05-07T08:01:43;27.40;;;24.93;;
15340;SDS011;7770;52.158;5.372;2023-05-07T08:04:29;27.83;;;25.33;;
15340;SDS011;7770;52.158;5.372;2023-05-07T08:07:18;30.27;;;27.53;;
15340;SDS011;7770;52.158;5.372;2023-05-07T08:10:05;30.07;;;27.37;;
15340;SDS011;7770;52.158;5.372;2023-05-07T08:12:52;28.20;;;25.63;;
15340;SDS011;7770;52.158;5.372;2023-05-07T08:15:38;28.07;;;25.47;;
15340;SDS011;7770;52.158;5.372;2023-05-07T08:18:24;29.87;;;27.27;;
15340;SDS011;7770;52.158;5.372;2023-05-07T08:21:11;28.27;;;25.77;;
15340;SDS011;7770;52.158;5.372;2023-05-07T08:23:57;30.03;;;27.13;;
15340;SDS011;7770;52.158;5.372;2023-05-07T08:26:43;30.07;;;27.33;;
15340;SDS011;7770;52.158;5.372;2023-05-07T08:29:30;31.20;;;28.47;;
15340;SDS011;7770;52.158;5.372;2023-05-07T08:32:16;34.20;;;31.00;;
15340;SDS011;7770;52.158;5.372;2023-05-07T08:35:02;34.03;;;31.03;;
15340;SDS011;7770;52.158;5.372;2023-05-07T08:37:48;38.27;;;34.77;;
15340;SDS011;7770;52.158;5.372;2023-05-07T08:40:36;34.43;;;31.17;;
15340;SDS011;7770;52.158;5.372;2023-05-07T08:43:26;35.60;;;32.50;;
15340;SDS011;7770;52.158;5.372;2023-05-07T08:46:13;35.33;;;32.07;;
15340;SDS011;7770;52.158;5.372;2023-05-07T08:49:08;36.87;;;33.60;;
15340;SDS011;7770;52.158;5.372;2023-05-07T08:51:54;37.23;;;33.80;;
15340;SDS011;7770;52.158;5.372;2023-05-07T08:54:41;36.10;;;32.80;;
15340;SDS011;7770;52.158;5.372;2023-05-07T08:57:27;36.93;;;33.63;;
15340;SDS011;7770;52.158;5.372;2023-05-07T09:00:13;37.43;;;34.00;;
15340;SDS011;7770;52.158;5.372;2023-05-07T09:03:00;38.33;;;34.83;;
15340;SDS011;7770;52.158;5.372;2023-05-07T09:05:46;37.47;;;33.97;;
15340;SDS011;7770;52.158;5.372;2023-05-07T09:08:33;37.50;;;34.00;;
15340;SDS011;7770;52.158;5.372;2023-05-07T09:11:20;38.57;;;35.00;;
15340;SDS011;7770;52.158;5.372;2023-05-07T09:14:08;37.90;;;34.43;;
15340;SDS011;7770;52.158;5.372;2023-05-07T09:16:53;36.10;;;32.73;;
15340;SDS011;7770;52.158;5.372;2023-05-07T09:19:41;35.73;;;32.43;;
15340;SDS011;7770;52.158;5.372;2023-05-07T09:22:31;34.67;;;31.47;;
15340;SDS011;7770;52.158;5.372;2023-05-07T09:25:22;36.10;;;32.83;;
15340;SDS011;7770;52.158;5.372;2023-05-07T09:28:15;34.97;;;31.80;;
15340;SDS011;7770;52.158;5.372;2023-05-07T09:31:01;34.47;;;31.30;;
15340;SDS011;7770;52.158;5.372;2023-05-07T09:33:47;33.20;;;30.10;;
15340;SDS011;7770;52.158;5.372;2023-05-07T09:36:33;32.10;;;29.27;;
15340;SDS011;7770;52.158;5.372;2023-05-07T09:39:20;30.13;;;27.53;;
15340;SDS011;7770;52.158;5.372;2023-05-07T09:42:06;25.53;;;23.33;;
15340;SDS011;7770;52.158;5.372;2023-05-07T09:44:52;26.47;;;23.97;;
15340;SDS011;7770;52.158;5.372;2023-05-07T09:47:38;26.90;;;24.30;;
15340;SDS011;7770;52.158;5.372;2023-05-07T09:50:35;27.03;;;24.50;;
15340;SDS011;7770;52.158;5.372;2023-05-07T09:53:29;25.20;;;23.00;;
15340;SDS011;7770;52.158;5.372;2023-05-07T09:56:16;26.93;;;24.27;;
15340;SDS011;7770;52.158;5.372;2023-05-07T09:59:03;28.60;;;25.90;;
15340;SDS011;7770;52.158;5.372;2023-05-07T10:01:52;25.97;;;23.63;;
15340;SDS011;7770;52.158;5.372;2023-05-07T10:04:44;23.27;;;20.90;;
15340;SDS011;7770;52.158;5.372;2023-05-07T10:07:31;22.80;;;20.70;;
15340;SDS011;7770;52.158;5.372;2023-05-07T10:10:18;22.80;;;20.63;;
15340;SDS011;7770;52.158;5.372;2023-05-07T10:13:04;23.10;;;21.00;;
15340;SDS011;7770;52.158;5.372;2023-05-07T10:15:55;22.60;;;20.40;;
15340;SDS011;7770;52.158;5.372;2023-05-07T10:18:41;23.70;;;21.50;;
15340;SDS011;7770;52.158;5.372;2023-05-07T10:21:28;21.17;;;19.27;;
15340;SDS011;7770;52.158;5.372;2023-05-07T10:24:19;20.67;;;18.60;;
15340;SDS011;7770;52.158;5.372;2023-05-07T10:27:11;21.10;;;19.00;;
15340;SDS011;7770;52.158;5.372;2023-05-07T10:30:08;21.30;;;19.40;;
15340;SDS011;7770;52.158;5.372;2023-05-07T10:33:10;19.63;;;17.93;;
15340;SDS011;7770;52.158;5.372;2023-05-07T10:36:01;19.47;;;17.47;;
15340;SDS011;7770;52.158;5.372;2023-05-07T10:38:49;21.93;;;19.87;;
15340;SDS011;7770;52.158;5.372;2023-05-07T10:41:35;22.00;;;20.00;;
15340;SDS011;7770;52.158;5.372;2023-05-07T10:44:28;20.07;;;18.10;;
15340;SDS011;7770;52.158;5.372;2023-05-07T10:47:18;17.87;;;16.27;;
15340;SDS011;7770;52.158;5.372;2023-05-07T10:53:18;20.13;;;18.23;;
15340;SDS011;7770;52.158;5.372;2023-05-07T11:02:15;20.20;;;18.40;;
15340;SDS011;7770;52.158;5.372;2023-05-07T11:08:07;20.13;;;18.23;;
15340;SDS011;7770;52.158;5.372;2023-05-07T11:10:55;21.87;;;19.80;;
15340;SDS011;7770;52.158;5.372;2023-05-07T11:13:44;20.80;;;19.00;;
15340;SDS011;7770;52.158;5.372;2023-05-07T11:16:32;22.47;;;20.43;;
15340;SDS011;7770;52.158;5.372;2023-05-07T11:19:47;21.83;;;19.77;;
15340;SDS011;7770;52.158;5.372;2023-05-07T11:25:21;21.80;;;19.80;;
15340;SDS011;7770;52.158;5.372;2023-05-07T11:28:08;20.63;;;18.80;;
15340;SDS011;7770;52.158;5.372;2023-05-07T11:30:56;21.20;;;19.40;;
15340;SDS011;7770;52.158;5.372;2023-05-07T11:33:43;21.77;;;19.73;;
15340;SDS011;7770;52.158;5.372;2023-05-07T11:36:31;22.37;;;20.23;;
15340;SDS011;7770;52.158;5.372;2023-05-07T11:39:28;22.87;;;20.97;;
15340;SDS011;7770;52.158;5.372;2023-05-07T11:42:27;22.23;;;20.20;;
15340;SDS011;7770;52.158;5.372;2023-05-07T11:45:25;23.03;;;21.13;;
15340;SDS011;7770;52.158;5.372;2023-05-07T11:48:14;22.97;;;21.07;;
15340;SDS011;7770;52.158;5.372;2023-05-07T11:51:02;23.90;;;21.80;;
15340;SDS011;7770;52.158;5.372;2023-05-07T11:53:50;23.50;;;21.33;;
15340;SDS011;7770;52.158;5.372;2023-05-07T11:56:37;22.37;;;20.30;;
15340;SDS011;7770;52.158;5.372;2023-05-07T11:59:24;24.23;;;22.13;;
15340;SDS011;7770;52.158;5.372;2023-05-07T12:02:10;23.57;;;21.47;;
15340;SDS011;7770;52.158;5.372;2023-05-07T12:04:56;24.67;;;22.47;;
15340;SDS011;7770;52.158;5.372;2023-05-07T12:07:42;23.97;;;21.97;;
15340;SDS011;7770;52.158;5.372;2023-05-07T12:10:28;24.77;;;22.63;;
15340;SDS011;7770;52.158;5.372;2023-05-07T12:13:14;24.70;;;22.33;;
15340;SDS011;7770;52.158;5.372;2023-05-07T12:16:01;24.27;;;22.07;;
15340;SDS011;7770;52.158;5.372;2023-05-07T12:18:49;23.27;;;21.30;;
15340;SDS011;7770;52.158;5.372;2023-05-07T12:21:38;23.63;;;21.53;;
15340;SDS011;7770;52.158;5.372;2023-05-07T12:24:24;24.67;;;22.57;;
15340;SDS011;7770;52.158;5.372;2023-05-07T12:27:11;25.20;;;22.90;;
15340;SDS011;7770;52.158;5.372;2023-05-07T12:29:57;25.87;;;23.67;;
15340;SDS011;7770;52.158;5.372;2023-05-07T12:32:46;27.33;;;24.53;;
15340;SDS011;7770;52.158;5.372;2023-05-07T12:35:35;26.40;;;23.90;;
15340;SDS011;7770;52.158;5.372;2023-05-07T12:38:25;26.00;;;23.70;;
15340;SDS011;7770;52.158;5.372;2023-05-07T12:41:11;26.87;;;24.57;;
15340;SDS011;7770;52.158;5.372;2023-05-07T12:43:59;25.13;;;22.73;;
15340;SDS011;7770;52.158;5.372;2023-05-07T12:46:46;24.77;;;22.60;;
15340;SDS011;7770;52.158;5.372;2023-05-07T12:49:34;25.33;;;23.13;;
15340;SDS011;7770;52.158;5.372;2023-05-07T12:52:22;25.23;;;23.03;;
15340;SDS011;7770;52.158;5.372;2023-05-07T12:55:09;24.80;;;22.60;;
15340;SDS011;7770;52.158;5.372;2023-05-07T12:58:00;23.30;;;21.40;;
15340;SDS011;7770;52.158;5.372;2023-05-07T13:00:48;23.57;;;21.37;;
15340;SDS011;7770;52.158;5.372;2023-05-07T13:03:37;24.23;;;22.13;;
15340;SDS011;7770;52.158;5.372;2023-05-07T13:06:23;23.43;;;21.43;;
15340;SDS011;7770;52.158;5.372;2023-05-07T13:09:09;21.73;;;19.83;;
15340;SDS011;7770;52.158;5.372;2023-05-07T13:11:55;20.90;;;19.10;;
15340;SDS011;7770;52.158;5.372;2023-05-07T13:14:41;19.30;;;17.70;;
15340;SDS011;7770;52.158;5.372;2023-05-07T13:17:27;22.00;;;19.90;;
15340;SDS011;7770;52.158;5.372;2023-05-07T13:20:13;20.60;;;18.83;;
15340;SDS011;7770;52.158;5.372;2023-05-07T13:23:00;18.70;;;16.83;;
15340;SDS011;7770;52.158;5.372;2023-05-07T13:25:47;16.73;;;15.13;;
15340;SDS011;7770;52.158;5.372;2023-05-07T13:28:34;13.60;;;12.20;;
15340;SDS011;7770;52.158;5.372;2023-05-07T13:31:21;12.27;;;11.17;;
15340;SDS011;7770;52.158;5.372;2023-05-07T13:34:06;14.80;;;13.33;;
15340;SDS011;7770;52.158;5.372;2023-05-07T13:36:52;16.77;;;15.17;;
15340;SDS011;7770;52.158;5.372;2023-05-07T13:39:38;15.17;;;13.67;;
15340;SDS011;7770;52.158;5.372;2023-05-07T13:42:26;15.97;;;14.57;;
15340;SDS011;7770;52.158;5.372;2023-05-07T13:45:12;16.70;;;15.03;;
15340;SDS011;7770;52.158;5.372;2023-05-07T13:48:00;17.50;;;15.80;;
15340;SDS011;7770;52.158;5.372;2023-05-07T13:50:46;20.57;;;18.73;;
15340;SDS011;7770;52.158;5.372;2023-05-07T13:53:32;18.23;;;16.63;;
15340;SDS011;7770;52.158;5.372;2023-05-07T13:56:18;21.13;;;19.23;;
15340;SDS011;7770;52.158;5.372;2023-05-07T13:59:05;21.40;;;19.30;;
15340;SDS011;7770;52.158;5.372;2023-05-07T14:01:51;22.80;;;20.80;;
15340;SDS011;7770;52.158;5.372;2023-05-07T14:04:37;20.23;;;18.27;;
15340;SDS011;7770;52.158;5.372;2023-05-07T14:07:23;19.27;;;17.60;;
15340;SDS011;7770;52.158;5.372;2023-05-07T14:10:09;20.63;;;18.73;;
15340;SDS011;7770;52.158;5.372;2023-05-07T14:12:56;22.63;;;20.63;;
15340;SDS011;7770;52.158;5.372;2023-05-07T14:15:42;22.13;;;20.10;;
15340;SDS011;7770;52.158;5.372;2023-05-07T14:18:31;20.80;;;18.90;;
15340;SDS011;7770;52.158;5.372;2023-05-07T14:21:19;21.43;;;19.43;;
15340;SDS011;7770;52.158;5.372;2023-05-07T14:24:06;21.63;;;19.73;;
15340;SDS011;7770;52.158;5.372;2023-05-07T14:26:53;22.27;;;20.37;;
15340;SDS011;7770;52.158;5.372;2023-05-07T14:29:39;23.47;;;21.27;;
15340;SDS011;7770;52.158;5.372;2023-05-07T14:32:25;23.03;;;20.93;;
15340;SDS011;7770;52.158;5.372;2023-05-07T14:35:11;30.53;;;27.47;;
15340;SDS011;7770;52.158;5.372;2023-05-07T14:37:57;27.30;;;24.90;;
15340;SDS011;7770;52.158;5.372;2023-05-07T14:40:43;26.53;;;24.10;;
15340;SDS011;7770;52.158;5.372;2023-05-07T14:43:30;21.47;;;19.47;;
15340;SDS011;7770;52.158;5.372;2023-05-07T14:46:19;23.23;;;21.03;;
15340;SDS011;7770;52.158;5.372;2023-05-07T14:49:05;26.23;;;23.93;;
15340;SDS011;7770;52.158;5.372;2023-05-07T14:51:52;34.50;;;31.40;;
15340;SDS011;7770;52.158;5.372;2023-05-07T14:54:38;23.53;;;21.43;;
15340;SDS011;7770;52.158;5.372;2023-05-07T14:57:25;26.07;;;23.67;;
15340;SDS011;7770;52.158;5.372;2023-05-07T15:00:11;22.17;;;20.17;;
15340;SDS011;7770;52.158;5.372;2023-05-07T15:03:00;21.27;;;19.30;;
15340;SDS011;7770;52.158;5.372;2023-05-07T15:05:54;23.40;;;21.30;;
15340;SDS011;7770;52.158;5.372;2023-05-07T15:08:41;21.17;;;18.97;;
15340;SDS011;7770;52.158;5.372;2023-05-07T15:11:27;21.97;;;19.97;;
15340;SDS011;7770;52.158;5.372;2023-05-07T15:14:13;21.10;;;19.20;;
15340;SDS011;7770;52.158;5.372;2023-05-07T15:16:59;21.00;;;19.00;;
15340;SDS011;7770;52.158;5.372;2023-05-07T15:19:45;21.80;;;19.70;;
15340;SDS011;7770;52.158;5.372;2023-05-07T15:22:31;22.57;;;20.50;;
15340;SDS011;7770;52.158;5.372;2023-05-07T15:25:17;21.80;;;19.67;;
15340;SDS011;7770;52.158;5.372;2023-05-07T15:28:03;18.30;;;16.60;;
15340;SDS011;7770;52.158;5.372;2023-05-07T15:30:49;14.50;;;13.00;;
15340;SDS011;7770;52.158;5.372;2023-05-07T15:33:35;12.80;;;11.70;;
15340;SDS011;7770;52.158;5.372;2023-05-07T15:36:21;10.70;;;9.60;;
15340;SDS011;7770;52.158;5.372;2023-05-07T15:39:07;10.00;;;9.20;;
15340;SDS011;7770;52.158;5.372;2023-05-07T15:41:53;11.97;;;10.77;;
15340;SDS011;7770;52.158;5.372;2023-05-07T15:44:39;14.80;;;11.50;;
15340;SDS011;7770;52.158;5.372;2023-05-07T15:47:25;12.00;;;10.67;;
15340;SDS011;7770;52.158;5.372;2023-05-07T15:50:12;11.20;;;9.07;;
15340;SDS011;7770;52.158;5.372;2023-05-07T15:52:57;10.30;;;9.27;;
15340;SDS011;7770;52.158;5.372;2023-05-07T15:55:43;9.80;;;8.80;;
15340;SDS011;7770;52.158;5.372;2023-05-07T15:58:29;10.40;;;7.87;;
15340;SDS011;7770;52.158;5.372;2023-05-07T16:01:16;9.03;;;7.87;;
15340;SDS011;7770;52.158;5.372;2023-05-07T16:04:02;9.53;;;6.83;;
15340;SDS011;7770;52.158;5.372;2023-05-07T16:06:48;7.13;;;5.97;;
15340;SDS011;7770;52.158;5.372;2023-05-07T16:09:34;6.37;;;5.50;;
15340;SDS011;7770;52.158;5.372;2023-05-07T16:12:20;5.30;;;4.80;;
15340;SDS011;7770;52.158;5.372;2023-05-07T16:15:07;6.20;;;5.10;;
15340;SDS011;7770;52.158;5.372;2023-05-07T16:17:53;5.80;;;5.27;;
15340;SDS011;7770;52.158;5.372;2023-05-07T16:20:42;5.83;;;5.17;;
15340;SDS011;7770;52.158;5.372;2023-05-07T16:23:28;7.93;;;5.20;;
15340;SDS011;7770;52.158;5.372;2023-05-07T16:26:14;4.93;;;4.50;;
15340;SDS011;7770;52.158;5.372;2023-05-07T16:29:00;5.73;;;4.47;;
15340;SDS011;7770;52.158;5.372;2023-05-07T16:31:48;4.87;;;4.20;;
15340;SDS011;7770;52.158;5.372;2023-05-07T16:34:35;8.03;;;4.00;;
15340;SDS011;7770;52.158;5.372;2023-05-07T16:37:21;4.47;;;4.07;;
15340;SDS011;7770;52.158;5.372;2023-05-07T16:40:07;4.83;;;4.43;;
15340;SDS011;7770;52.158;5.372;2023-05-07T16:42:53;5.60;;;5.10;;
15340;SDS011;7770;52.158;5.372;2023-05-07T16:45:39;8.10;;;7.30;;
15340;SDS011;7770;52.158;5.372;2023-05-07T16:48:25;9.30;;;8.40;;